Time;durP1;ratioP1;P1;durP2;ratioP2;P2;SDS_P1;SDS_P2;PMS_P1;PMS_P2;Temp;Humidity;BMP_temperature;BMP_pressure;BME280_temperature;BME280_humidity;BME280_pressure;Samples;Min_cycle;Max_cycle;Signal;HPM_P1;HPM_P2
2022/06/10 00:03:51;;;;;;;18.8;20.9;;;;;;;-133;100;65200;;;;
2022/06/10 00:14:50;;;;;;;18.8;20.9;;;;;;;-133;100;65200;;;;
2022/06/10 00:24:51;;;;;;;22.7;27.3;;;;;;;-133;100;65200;;;;
2022/06/10 00:34:51;;;;;;;22.7;27.3;;;;;;;-133;100;65200;;;;
2022/06/10 00:45:51;;;;;;;22.7;27.3;;;;;;;-133;100;65200;;;;
2022/06/10 00:56:51;;;;;;;21.7;24.7;;;;;;;-133;100;65200;;;;
2022/06/10 01:06:51;;;;;;;21.7;24.7;;;;;;;-133;100;65200;;;;
2022/06/10 01:16:51;;;;;;;23.9;29.3;;;;;;;-133;100;65200;;;;
2022/06/10 01:27:55;;;;;;;23.9;29.3;;;;;;;-133;100;65200;;;;
2022/06/10 01:37:50;;;;;;;23.9;29.3;;;;;;;-133;100;65200;;;;
2022/06/10 01:47:50;;;;;;;26.7;31.2;;;;;;;-133;100;65200;;;;
2022/06/10 01:58:51;;;;;;;26.7;31.2;;;;;;;-133;100;65200;;;;
2022/06/10 02:09:51;;;;;;;26.7;31.2;;;;;;;-133;100;65200;;;;
2022/06/10 02:20:51;;;;;;;25.1;29.3;;;;;;;-133;100;65200;;;;
2022/06/10 02:30:50;;;;;;;25.1;29.3;;;;;;;-133;100;65200;;;;
2022/06/10 02:40:51;;;;;;;25.1;29.3;;;;;;;-133;100;65200;;;;
2022/06/10 02:50:51;;;;;;;24;27.1;;;;;;;-133;100;65200;;;;
2022/06/10 03:01:22;;;;;;;24;27.1;;;;;;;-133;100;65200;;;;
2022/06/10 03:11:50;;;;;;;24;27.1;;;;;;;-133;100;65200;;;;
2022/06/10 03:21:51;;;;;;;25.8;30;;;;;;;-133;100;65190;;;;
2022/06/10 03:32:50;;;;;;;25.8;30;;;;;;;-133;100;65200;;;;
2022/06/10 03:42:51;;;;;;;25.8;30;;;;;;;-133;100;65200;;;;
2022/06/10 03:53:51;;;;;;;26.9;31.1;;;;;;;-133;99.8;65200;;;;
2022/06/10 04:04:51;;;;;;;26.9;31.1;;;;;;;-133;97.3;65200;;;;
2022/06/10 04:15:51;;;;;;;26.9;31.1;;;;;;;-133;96.1;65200;;;;
2022/06/10 04:25:51;;;;;;;24.2;28.2;;;;;;;-133;95;65200;;;;
2022/06/10 04:35:51;;;;;;;24.2;28.2;;;;;;;-133;93.4;65200;;;;
2022/06/10 04:46:51;;;;;;;17.5;19.6;;;;;;;-133;94.3;65200;;;;
2022/06/10 04:57:51;;;;;;;17.5;19.6;;;;;;;-133;94.6;65200;;;;
2022/06/10 05:07:51;;;;;;;17.5;19.6;;;;;;;-133;94.4;65210;;;;
2022/06/10 05:17:51;;;;;;;24.6;28.1;;;;;;;-133;93.5;65210;;;;
2022/06/10 05:28:51;;;;;;;24.6;28.1;;;;;;;-133;93.2;65210;;;;
2022/06/10 05:39:52;;;;;;;24.6;28.1;;;;;;;-133;93.2;65200;;;;
2022/06/10 05:49:51;;;;;;;25.2;28.3;;;;;;;-133;93.7;65210;;;;
2022/06/10 05:59:52;;;;;;;25.2;28.3;;;;;;;-133;93.8;65210;;;;
2022/06/10 06:09:51;;;;;;;25.2;28.3;;;;;;;-133;93.7;65210;;;;
2022/06/10 06:19:51;;;;;;;25.9;29.4;;;;;;;-133;93.4;65210;;;;
2022/06/10 06:30:51;;;;;;;25.9;29.4;;;;;;;-133;92.8;65210;;;;
2022/06/10 06:40:51;;;;;;;25.9;29.4;;;;;;;-133;92.7;65210;;;;
2022/06/10 06:50:51;;;;;;;26.4;33;;;;;;;-133;93;65210;;;;
2022/06/10 07:01:51;;;;;;;26.4;33;;;;;;;-133;92.2;65210;;;;
2022/06/10 07:12:51;;;;;;;26.4;33;;;;;;;-133;93.4;65210;;;;
2022/06/10 07:23:51;;;;;;;26;33.3;;;;;;;-133;93.7;65210;;;;
2022/06/10 07:34:51;;;;;;;26;33.3;;;;;;;-133;91.9;65210;;;;
2022/06/10 07:45:51;;;;;;;26;33.3;;;;;;;-133;92;65220;;;;
2022/06/10 07:55:51;;;;;;;26.9;33.1;;;;;;;-133;93;65210;;;;
2022/06/10 08:05:51;;;;;;;26.9;33.1;;;;;;;-133;92.9;65210;;;;
2022/06/10 08:16:53;;;;;;;29.1;32.5;;;;;;;-133;93.3;65210;;;;
2022/06/10 08:26:51;;;;;;;29.1;32.5;;;;;;;-133;91.4;65210;;;;
2022/06/10 08:37:51;;;;;;;29.1;32.5;;;;;;;-133;89.5;65210;;;;
2022/06/10 08:48:51;;;;;;;31.4;37.6;;;;;;;-133;90.6;65210;;;;
2022/06/10 08:59:51;;;;;;;31.4;37.6;;;;;;;-133;91;65210;;;;
2022/06/10 09:09:51;;;;;;;31.4;37.6;;;;;;;-133;93.3;65220;;;;
2022/06/10 09:19:51;;;;;;;27.5;33.5;;;;;;;-133;92.7;65220;;;;
2022/06/10 09:30:51;;;;;;;27.5;33.5;;;;;;;-133;91;65220;;;;
2022/06/10 09:40:51;;;;;;;27.5;33.5;;;;;;;-133;90.5;65210;;;;
2022/06/10 09:51:51;;;;;;;24.3;28.2;;;;;;;-133;90.8;65220;;;;
2022/06/10 10:01:51;;;;;;;24.3;28.2;;;;;;;-133;91.2;65220;;;;
2022/06/10 10:11:51;;;;;;;24.3;28.2;;;;;;;-133;91.2;65210;;;;
2022/06/10 10:21:51;;;;;;;24.4;27.4;;;;;;;-133;92.3;65210;;;;
2022/06/10 10:32:51;;;;;;;24.4;27.4;;;;;;;-133;91;65220;;;;
2022/06/10 10:43:51;;;;;;;24.4;27.4;;;;;;;-133;90.3;65210;;;;
2022/06/10 10:53:51;;;;;;;18.2;20.8;;;;;;;-133;87.2;65210;;;;
2022/06/10 11:04:51;;;;;;;18.2;20.8;;;;;;;-133;86.4;65220;;;;
2022/06/10 11:14:51;;;;;;;18.2;20.8;;;;;;;-133;85.4;65210;;;;
2022/06/10 11:25:51;;;;;;;10.7;12.7;;;;;;;-133;83.7;65210;;;;
2022/06/10 11:35:51;;;;;;;10.7;12.7;;;;;;;-133;82.2;65210;;;;
2022/06/10 11:46:51;;;;;;;10.3;13.3;;;;;;;-133;82.4;65210;;;;
2022/06/10 12:07:51;;;;;;;10.3;13.3;;;;;;;-133;82.9;65210;;;;
2022/06/10 12:18:51;;;;;;;11.9;14.6;;;;;;;-133;84.1;65210;;;;
2022/06/10 12:28:51;;;;;;;11.9;14.6;;;;;;;-133;84.4;65210;;;;
2022/06/10 12:39:51;;;;;;;11.9;14.6;;;;;;;-133;84.6;65210;;;;
2022/06/10 12:50:51;;;;;;;13.4;16.2;;;;;;;-133;84;65210;;;;
2022/06/10 13:00:52;;;;;;;13.4;16.2;;;;;;;-133;83.1;65210;;;;
2022/06/10 13:11:51;;;;;;;13.4;16.2;;;;;;;-133;82.9;65220;;;;
2022/06/10 13:22:51;;;;;;;12.8;14.2;;;;;;;-133;82.7;65210;;;;
2022/06/10 13:32:52;;;;;;;12.8;14.2;;;;;;;-133;81.6;65210;;;;
2022/06/10 13:43:51;;;;;;;12.8;14.2;;;;;;;-133;81.4;65210;;;;
2022/06/10 13:53:54;;;;;;;10.5;12.2;;;;;;;-133;79.9;65210;;;;
2022/06/10 14:04:51;;;;;;;10.5;12.2;;;;;;;-133;80.5;65210;;;;
2022/06/10 14:15:51;;;;;;;10.5;12.2;;;;;;;-133;79.9;65210;;;;
2022/06/10 14:25:51;;;;;;;13.3;15.9;;;;;;;-133;77.6;65210;;;;
2022/06/10 14:36:51;;;;;;;13.3;15.9;;;;;;;-133;76.2;65210;;;;
2022/06/10 14:46:51;;;;;;;11.9;13.9;;;;;;;-133;77;65210;;;;
2022/06/10 14:57:53;;;;;;;11.9;13.9;;;;;;;-133;76.1;65210;;;;
2022/06/10 15:07:51;;;;;;;11.9;13.9;;;;;;;-133;77;65210;;;;
2022/06/10 15:18:51;;;;;;;9.7;12.4;;;;;;;-133;74.6;65210;;;;
2022/06/10 15:28:51;;;;;;;9.7;12.4;;;;;;;-133;73.2;65210;;;;
2022/06/10 15:40:55;;;;;;;9.7;12.4;;;;;;;-133;73.8;65210;;;;
2022/06/10 15:49:51;;;;;;;7.9;10.8;;;;;;;-133;75.4;65210;;;;
2022/06/10 16:00:51;;;;;;;7.9;10.8;;;;;;;-133;75.4;65210;;;;
2022/06/10 16:22:51;;;;;;;7.6;10.7;;;;;;;-133;80.4;65210;;;;
2022/06/10 16:33:51;;;;;;;7.6;10.7;;;;;;;-133;80.7;65210;;;;
2022/06/10 16:43:51;;;;;;;7.6;10.7;;;;;;;-133;79.6;65210;;;;
2022/06/10 16:54:51;;;;;;;11.6;14.5;;;;;;;-133;80.3;65210;;;;
2022/06/10 17:04:52;;;;;;;11.6;14.5;;;;;;;-133;80.6;65210;;;;
2022/06/10 17:15:51;;;;;;;11.6;14.5;;;;;;;-133;81.2;65210;;;;
2022/06/10 17:26:51;;;;;;;10;14.8;;;;;;;-133;82;65210;;;;
2022/06/10 17:36:51;;;;;;;10;14.8;;;;;;;-133;82.9;65210;;;;
2022/06/10 17:47:51;;;;;;;8.4;10;;;;;;;-133;83.4;65210;;;;
2022/06/10 17:58:51;;;;;;;8.4;10;;;;;;;-133;84.1;65220;;;;
2022/06/10 18:09:51;;;;;;;8.4;10;;;;;;;-133;85;65210;;;;
2022/06/10 18:20:51;;;;;;;7.7;12.7;;;;;;;-133;85.6;65220;;;;
2022/06/10 18:30:51;;;;;;;7.7;12.7;;;;;;;-133;86.1;65220;;;;
2022/06/10 18:40:51;;;;;;;7.7;12.7;;;;;;;-133;86.7;65220;;;;
2022/06/10 18:50:51;;;;;;;9.7;13.1;;;;;;;-133;87.7;65220;;;;
2022/06/10 19:01:51;;;;;;;9.7;13.1;;;;;;;-133;88.9;65220;;;;
2022/06/10 19:11:51;;;;;;;9.7;13.1;;;;;;;-133;90.2;65220;;;;
2022/06/10 19:21:51;;;;;;;10;13.2;;;;;;;-133;91.3;65220;;;;
2022/06/10 19:31:51;;;;;;;10;13.2;;;;;;;-133;92.7;65220;;;;
2022/06/10 19:42:51;;;;;;;10;13.2;;;;;;;-133;94;65210;;;;
2022/06/10 19:53:51;;;;;;;10.4;13.9;;;;;;;-133;93.6;65220;;;;
2022/06/10 20:03:51;;;;;;;10.4;13.9;;;;;;;-133;94.4;65220;;;;
2022/06/10 20:13:51;;;;;;;10.4;13.9;;;;;;;-133;94.4;65220;;;;
2022/06/10 20:24:51;;;;;;;11.7;16.7;;;;;;;-133;93.9;65220;;;;
2022/06/10 20:35:51;;;;;;;11.7;16.7;;;;;;;-133;95.3;65220;;;;
2022/06/10 20:45:51;;;;;;;11.7;16.7;;;;;;;-133;95.1;65220;;;;
2022/06/10 20:56:51;;;;;;;11.7;15.6;;;;;;;-133;95.2;65220;;;;
2022/06/10 21:07:56;;;;;;;11.7;15.6;;;;;;;-133;95.1;65220;;;;
2022/06/10 21:16:51;;;;;;;10.6;14.6;;;;;;;-133;94.9;65210;;;;
2022/06/10 21:26:51;;;;;;;10.6;14.6;;;;;;;-133;94.8;65220;;;;
2022/06/10 21:37:51;;;;;;;10.6;14.6;;;;;;;-133;94.7;65220;;;;
2022/06/10 21:47:51;;;;;;;9.5;11.4;;;;;;;-133;95.1;65220;;;;
2022/06/10 21:58:52;;;;;;;9.5;11.4;;;;;;;-133;95;65220;;;;
2022/06/10 22:08:54;;;;;;;9.5;11.4;;;;;;;-133;95.5;65210;;;;
2022/06/10 22:18:51;;;;;;;10.4;14.7;;;;;;;-133;97.5;65220;;;;
2022/06/10 22:29:51;;;;;;;10.4;14.7;;;;;;;-133;97.8;65220;;;;
2022/06/10 22:39:51;;;;;;;10.4;14.7;;;;;;;-133;99.2;65220;;;;
2022/06/10 22:50:51;;;;;;;11.8;14.5;;;;;;;-133;99.7;65220;;;;
2022/06/10 23:00:51;;;;;;;11.8;14.5;;;;;;;-133;99.9;65210;;;;
2022/06/10 23:10:51;;;;;;;11.8;14.5;;;;;;;-133;100;65210;;;;
2022/06/10 23:21:51;;;;;;;13.7;16.4;;;;;;;-133;100;65220;;;;
2022/06/10 23:32:51;;;;;;;13.7;16.4;;;;;;;-133;100;65210;;;;
2022/06/10 23:42:51;;;;;;;13.7;16.4;;;;;;;-133;100;65210;;;;
2022/06/10 23:53:51;;;;;;;14.2;17.4;;;;;;;-133;100;65210;;;;
